createdAt,value
2023-04-13T00:02:24.614Z,76.09
2023-04-13T00:07:28.344Z,76.66
2023-04-13T00:12:30.646Z,76.73
2023-04-13T00:17:33.590Z,76.94
2023-04-13T00:22:36.985Z,77.22
2023-04-13T00:27:42.371Z,77.21
2023-04-13T00:32:45.228Z,77.65
2023-04-13T00:37:49.940Z,78.00
2023-04-13T00:42:51.860Z,77.86
2023-04-13T00:47:54.105Z,77.48
2023-04-13T00:52:55.982Z,77.18
2023-04-13T00:57:59.412Z,77.32
2023-04-13T01:03:01.937Z,77.32
2023-04-13T01:08:36.789Z,77.26
2023-04-13T01:13:55.934Z,77.14
2023-04-13T01:18:58.337Z,77.32
2023-04-13T01:24:03.057Z,77.46
2023-04-13T01:29:06.497Z,77.58
2023-04-13T01:34:09.082Z,77.48
2023-04-13T01:39:18.779Z,77.56
2023-04-13T01:44:21.123Z,76.88
2023-04-13T01:49:24.298Z,76.50
2023-04-13T01:54:56.499Z,76.46
2023-04-13T01:59:58.873Z,76.20
2023-04-13T02:05:00.542Z,76.20
2023-04-13T02:10:06.052Z,76.58
2023-04-13T02:15:08.328Z,78.69
2023-04-13T02:20:11.313Z,79.14
2023-04-13T02:25:13.033Z,79.01
2023-04-13T02:30:14.646Z,79.41
2023-04-13T02:35:17.252Z,81.40
2023-04-13T02:40:19.545Z,81.17
2023-04-13T02:45:21.337Z,84.08
2023-04-13T02:50:24.176Z,84.21
2023-04-13T02:55:36.539Z,84.05
2023-04-13T03:00:42.294Z,82.83
2023-04-13T03:05:50.329Z,82.02
2023-04-13T03:10:55.770Z,82.38
2023-04-13T03:16:00.493Z,82.20
2023-04-13T03:21:02.661Z,83.22
2023-04-13T03:26:12.257Z,83.57
2023-04-13T03:31:15.182Z,83.98
2023-04-13T03:36:17.530Z,86.04
2023-04-13T03:41:19.722Z,84.42
2023-04-13T03:46:22.673Z,83.63
2023-04-13T03:51:24.529Z,83.89
2023-04-13T03:56:27.811Z,83.68
2023-04-13T04:01:30.736Z,83.56
2023-04-13T04:06:32.500Z,83.71
2023-04-13T04:11:43.599Z,84.05
2023-04-13T04:16:47.045Z,84.49
2023-04-13T04:21:52.921Z,84.61
2023-04-13T04:26:58.013Z,85.13
2023-04-13T04:32:05.499Z,85.17
2023-04-13T04:37:19.731Z,85.73
2023-04-13T04:42:34.075Z,89.50
2023-04-13T04:47:42.102Z,90.42
2023-04-13T04:52:50.336Z,90.81
2023-04-13T04:57:56.492Z,89.55
2023-04-13T05:03:00.991Z,88.93
2023-04-13T05:08:03.176Z,91.03
2023-04-13T05:13:05.302Z,92.09
2023-04-13T05:18:07.090Z,91.36
2023-04-13T05:23:09.750Z,90.26
2023-04-13T05:28:18.156Z,91.73
2023-04-13T05:33:21.663Z,91.96
2023-04-13T05:38:28.965Z,93.16
2023-04-13T05:43:31.608Z,93.53
2023-04-13T05:48:34.847Z,94.34
2023-04-13T05:53:39.901Z,94.45
2023-04-13T05:58:41.671Z,95.52
2023-04-13T06:03:56.431Z,95.00
2023-04-13T06:08:59.123Z,95.54
2023-04-13T06:14:02.573Z,94.94
2023-04-13T06:19:05.034Z,96.49
2023-04-13T06:24:09.726Z,97.15
2023-04-13T06:29:12.981Z,95.28
2023-04-13T06:34:21.848Z,95.33
2023-04-13T06:39:23.593Z,95.67
2023-04-13T06:44:32.568Z,95.92
2023-04-13T06:49:34.559Z,94.69
2023-04-13T06:54:37.752Z,95.16
2023-04-13T06:59:47.954Z,95.45
2023-04-13T07:04:49.966Z,95.33
2023-04-13T07:09:54.072Z,95.85
2023-04-13T07:14:55.887Z,96.02
2023-04-13T07:19:58.950Z,96.27
2023-04-13T07:25:01.400Z,96.33
2023-04-13T07:30:03.871Z,96.77
2023-04-13T07:35:12.318Z,96.91
2023-04-13T07:40:17.029Z,95.71
2023-04-13T07:45:22.923Z,96.21
2023-04-13T07:50:25.879Z,95.64
2023-04-13T07:55:27.989Z,96.62
2023-04-13T08:00:31.331Z,96.85
2023-04-13T08:05:36.799Z,96.37
2023-04-13T08:10:38.594Z,95.53
2023-04-13T08:15:42.554Z,95.94
2023-04-13T08:20:44.255Z,94.80
2023-04-13T08:25:47.188Z,95.07
2023-04-13T08:30:50.876Z,95.58
2023-04-13T08:35:53.763Z,95.41
2023-04-13T08:40:56.343Z,95.63
2023-04-13T08:46:07.798Z,94.74
2023-04-13T08:51:10.577Z,95.33
2023-04-13T08:56:14.870Z,95.86
2023-04-13T09:01:17.354Z,95.99
2023-04-13T09:06:25.982Z,96.16
2023-04-13T09:11:28.632Z,97.20
2023-04-13T09:16:42.200Z,96.30
2023-04-13T09:21:50.778Z,95.47
2023-04-13T09:26:52.934Z,95.11
2023-04-13T09:31:54.828Z,93.81
2023-04-13T09:36:58.627Z,92.69
2023-04-13T09:42:10.336Z,92.53
2023-04-13T09:47:12.936Z,91.88
2023-04-13T09:52:24.501Z,92.31
2023-04-13T09:57:31.860Z,92.48
2023-04-13T10:02:34.135Z,91.70
2023-04-13T10:07:38.141Z,88.63
2023-04-13T10:12:46.263Z,89.29
2023-04-13T10:18:03.838Z,89.02
2023-04-13T10:23:06.520Z,85.90
2023-04-13T10:28:08.153Z,86.43
2023-04-13T10:33:11.636Z,86.42
2023-04-13T10:38:15.204Z,85.98
2023-04-13T10:43:26.860Z,85.97
2023-04-13T10:48:28.484Z,86.50
2023-04-13T10:53:35.058Z,86.12
2023-04-13T10:58:37.024Z,84.87
2023-04-13T11:03:41.477Z,84.46
2023-04-13T11:08:48.422Z,82.11
2023-04-13T11:13:50.579Z,82.19
2023-04-13T11:19:02.848Z,82.56
2023-04-13T11:24:04.791Z,82.90
2023-04-13T11:29:17.082Z,83.34
2023-04-13T11:34:26.485Z,84.58
2023-04-13T11:39:29.000Z,85.79
2023-04-13T11:44:30.929Z,86.93
2023-04-13T11:49:33.148Z,85.86
2023-04-13T11:54:35.167Z,86.91
2023-04-13T11:59:38.684Z,87.99
2023-04-13T12:04:45.959Z,87.22
2023-04-13T12:15:12.369Z,86.65
2023-04-13T12:20:20.544Z,87.86
2023-04-13T12:25:24.366Z,89.09
2023-04-13T12:30:27.582Z,89.81
2023-04-13T12:35:29.210Z,91.35
2023-04-13T12:40:31.105Z,92.13
2023-04-13T12:45:32.885Z,90.46
2023-04-13T12:50:34.718Z,90.25
2023-04-13T12:55:36.570Z,89.26
2023-04-13T13:00:38.242Z,89.04
2023-04-13T13:05:40.176Z,88.81
2023-04-13T13:10:42.406Z,89.15
2023-04-13T13:15:44.109Z,90.25
2023-04-13T13:20:45.996Z,89.72
2023-04-13T13:26:04.441Z,89.25
2023-04-13T13:31:10.841Z,89.99
2023-04-13T13:36:14.058Z,90.71
2023-04-13T13:41:16.364Z,91.02
2023-04-13T13:46:18.320Z,91.13
2023-04-13T13:51:20.843Z,91.33
2023-04-13T13:56:23.286Z,91.22
2023-04-13T14:01:25.221Z,90.75
2023-04-13T14:06:27.839Z,90.28
2023-04-13T14:11:29.814Z,90.10
2023-04-13T14:16:31.754Z,90.66
2023-04-13T14:21:33.510Z,91.02
2023-04-13T14:26:38.384Z,90.40
2023-04-13T14:31:40.134Z,90.20
2023-04-13T14:36:42.556Z,89.67
2023-04-13T14:41:45.446Z,89.04
2023-04-13T14:46:47.076Z,89.38
2023-04-13T14:51:48.897Z,89.70
2023-04-13T14:56:50.628Z,89.96
2023-04-13T15:01:52.371Z,89.30
2023-04-13T15:06:54.476Z,88.27
2023-04-13T15:11:56.230Z,87.72
2023-04-13T15:16:58.154Z,87.79
2023-04-13T15:22:00.194Z,85.80
2023-04-13T15:27:01.901Z,85.11
2023-04-13T15:32:03.666Z,85.44
2023-04-13T15:37:05.501Z,85.25
2023-04-13T15:42:07.097Z,84.69
2023-04-13T15:47:08.938Z,82.75
2023-04-13T15:52:10.773Z,82.98
2023-04-13T15:57:12.511Z,82.56
2023-04-13T16:02:14.521Z,82.88
2023-04-13T16:07:16.996Z,81.82
2023-04-13T16:12:18.972Z,82.86
2023-04-13T16:17:30.893Z,83.87
2023-04-13T16:22:35.648Z,83.83
2023-04-13T16:27:38.484Z,84.08
2023-04-13T16:32:46.539Z,85.23
2023-04-13T16:37:48.472Z,86.10
2023-04-13T16:42:50.169Z,86.32
2023-04-13T16:47:55.415Z,86.89
2023-04-13T16:52:57.172Z,86.43
2023-04-13T16:57:58.959Z,86.07
2023-04-13T17:03:00.758Z,85.98
2023-04-13T17:08:04.256Z,86.88
2023-04-13T17:13:05.951Z,86.81
2023-04-13T17:18:07.847Z,87.18
2023-04-13T17:23:09.508Z,87.08
2023-04-13T17:28:11.114Z,87.02
2023-04-13T17:33:12.768Z,87.52
2023-04-13T17:38:14.526Z,87.71
2023-04-13T17:43:16.682Z,88.53
2023-04-13T17:48:18.274Z,88.55
2023-04-13T17:53:20.080Z,88.10
2023-04-13T17:58:21.772Z,87.91
2023-04-13T18:03:23.694Z,89.05
2023-04-13T18:08:25.516Z,88.61
2023-04-13T18:13:27.509Z,88.63
2023-04-13T18:18:29.212Z,89.50
2023-04-13T18:23:31.341Z,89.07
2023-04-13T18:28:36.905Z,88.89
2023-04-13T18:33:38.864Z,89.11
2023-04-13T18:38:40.540Z,89.16
2023-04-13T18:43:42.252Z,89.51
2023-04-13T18:48:44.235Z,89.85
2023-04-13T18:53:46.023Z,89.32
2023-04-13T18:58:49.591Z,89.73
2023-04-13T19:03:52.900Z,89.88
2023-04-13T19:08:54.768Z,90.04
2023-04-13T19:13:56.942Z,90.08
2023-04-13T19:18:58.558Z,90.52
2023-04-13T19:24:00.370Z,91.30
2023-04-13T19:29:04.023Z,90.62
2023-04-13T19:34:07.584Z,90.95
2023-04-13T19:39:10.048Z,91.20
2023-04-13T19:44:14.020Z,90.43
2023-04-13T19:49:15.718Z,90.18
2023-04-13T19:54:17.340Z,90.86
2023-04-13T19:59:18.962Z,90.47
2023-04-13T20:04:20.650Z,90.46
2023-04-13T20:09:22.962Z,90.55
2023-04-13T20:14:24.646Z,90.27
2023-04-13T20:19:26.559Z,90.19
2023-04-13T20:24:28.190Z,90.34
2023-04-13T20:29:29.804Z,90.34
2023-04-13T20:34:31.471Z,90.10
2023-04-13T20:39:33.159Z,90.37
2023-04-13T20:44:38.389Z,90.52
2023-04-13T20:49:47.078Z,90.99
2023-04-13T20:54:48.788Z,90.48
2023-04-13T20:59:52.053Z,90.30
2023-04-13T21:04:53.999Z,90.58
2023-04-13T21:09:55.931Z,90.40
2023-04-13T21:14:57.736Z,91.58
2023-04-13T21:20:00.468Z,91.25
2023-04-13T21:25:04.033Z,91.58
2023-04-13T21:30:06.260Z,91.90
2023-04-13T21:35:08.590Z,92.01
2023-04-13T21:40:10.702Z,91.81
2023-04-13T21:45:12.571Z,92.03
2023-04-13T21:50:14.244Z,92.87
2023-04-13T21:55:19.334Z,93.98
2023-04-13T22:00:20.988Z,93.43
2023-04-13T22:05:22.549Z,93.21
2023-04-13T22:10:24.264Z,93.70
2023-04-13T22:15:26.000Z,93.95
2023-04-13T22:20:27.642Z,95.71
2023-04-13T22:25:29.287Z,95.75
2023-04-13T22:30:31.073Z,96.51
2023-04-13T22:35:34.526Z,96.24
2023-04-13T22:40:39.395Z,96.76
2023-04-13T22:45:41.226Z,97.46
2023-04-13T22:50:42.826Z,98.33
2023-04-13T22:55:44.435Z,98.09
2023-04-13T23:00:46.216Z,97.79
2023-04-13T23:05:48.096Z,97.13
2023-04-13T23:10:49.754Z,96.62
2023-04-13T23:15:59.108Z,95.98
2023-04-13T23:21:09.729Z,97.42
2023-04-13T23:26:11.388Z,97.07
2023-04-13T23:31:13.475Z,97.29
2023-04-13T23:36:16.143Z,97.15
2023-04-13T23:41:17.821Z,98.19
2023-04-13T23:46:20.129Z,98.18
2023-04-13T23:51:22.408Z,98.13
2023-04-13T23:56:24.204Z,98.45
